Time;durP1;ratioP1;P1;durP2;ratioP2;P2;SDS_P1;SDS_P2;PMS_P1;PMS_P2;Temp;Humidity;BMP_temperature;BMP_pressure;BME280_temperature;BME280_humidity;BME280_pressure;Samples;Min_cycle;Max_cycle;Signal;HPM_P1;HPM_P2
2022/02/11 00:00:58;;;;;;;18.47;16.73;;;6.60;99.90;;;;;;4995447;28;20229;-76
2022/02/11 00:06:27;;;;;;;16.87;15.40;;;6.60;99.90;;;;;;4994068;28;20199;-76
2022/02/11 00:08:54;;;;;;;17.60;16.00;;;6.60;99.90;;;;;;5003529;28;20302;-76
2022/02/11 00:11:30;;;;;;;17.53;16.03;;;6.60;99.90;;;;;;4998446;28;20258;-76
2022/02/11 00:13:57;;;;;;;18.07;16.33;;;6.60;99.90;;;;;;4993470;28;20257;-77
2022/02/11 00:16:24;;;;;;;17.43;15.73;;;6.60;99.90;;;;;;4997317;28;20801;-76
2022/02/11 00:18:52;;;;;;;18.63;16.87;;;6.60;99.90;;;;;;5004095;28;20253;-76
2022/02/11 00:21:20;;;;;;;18.03;16.33;;;6.60;99.90;;;;;;4997803;28;20230;-76
2022/02/11 00:23:47;;;;;;;17.93;16.43;;;6.60;99.90;;;;;;4997725;28;20257;-76
2022/02/11 00:26:14;;;;;;;18.20;16.43;;;6.60;99.90;;;;;;4997262;28;20632;-76
2022/02/11 00:29:37;;;;;;;17.43;15.73;;;6.60;99.90;;;;;;4998273;28;20201;-76
2022/02/11 00:32:09;;;;;;;18.47;16.50;;;6.60;99.90;;;;;;5000220;28;20233;-76
2022/02/11 00:34:43;;;;;;;16.87;15.40;;;6.60;99.90;;;;;;4998906;28;20208;-76
2022/02/11 00:37:14;;;;;;;17.40;15.63;;;6.60;99.90;;;;;;5001117;28;20341;-76
2022/02/11 00:45:40;;;;;;;18.47;16.73;;;6.60;99.90;;;;;;5002391;28;20194;-76
2022/02/11 01:04:34;;;;;;;16.27;14.60;;;6.50;99.90;;;;;;4991185;28;20207;-76
2022/02/11 01:07:02;;;;;;;16.47;14.83;;;6.50;99.90;;;;;;5003459;28;20277;-76
2022/02/11 01:09:29;;;;;;;16.73;15.23;;;6.50;99.90;;;;;;4991799;28;20253;-76
2022/02/11 01:11:59;;;;;;;15.37;14.00;;;6.50;99.90;;;;;;5002337;28;20965;-76
2022/02/11 01:14:33;;;;;;;15.70;14.40;;;6.50;99.90;;;;;;4998340;28;20565;-76
2022/02/11 01:17:09;;;;;;;15.00;13.70;;;6.50;99.90;;;;;;4990050;28;20675;-76
2022/02/11 01:19:44;;;;;;;14.40;13.17;;;6.60;99.90;;;;;;4993637;28;20256;-76
2022/02/11 01:22:21;;;;;;;15.00;13.70;;;6.60;99.90;;;;;;4992926;28;20594;-76
2022/02/11 01:25:05;;;;;;;15.50;14.10;;;6.50;99.90;;;;;;5002914;28;20831;-76
2022/02/11 01:27:39;;;;;;;15.53;14.07;;;6.60;99.90;;;;;;4984016;28;20227;-76
2022/02/11 01:30:37;;;;;;;15.87;14.47;;;6.60;99.90;;;;;;5001568;28;20560;-76
2022/02/11 01:33:28;;;;;;;15.67;14.23;;;6.50;99.90;;;;;;4998896;28;20213;-76
2022/02/11 01:36:05;;;;;;;15.37;13.97;;;6.60;99.90;;;;;;5000005;28;20206;-76
2022/02/11 01:38:44;;;;;;;16.77;15.17;;;6.60;99.90;;;;;;4989212;28;20676;-76
2022/02/11 01:47:26;;;;;;;15.57;14.17;;;6.50;99.90;;;;;;4977205;28;20286;-76
2022/02/11 01:52:53;;;;;;;15.43;14.13;;;6.50;99.90;;;;;;4942986;28;20212;-76
2022/02/11 01:55:44;;;;;;;14.63;13.43;;;6.50;99.90;;;;;;5007071;28;20282;-76
2022/02/11 01:58:43;;;;;;;15.70;14.37;;;6.50;99.90;;;;;;4992943;28;20290;-77
2022/02/11 02:01:34;;;;;;;15.07;13.67;;;6.50;99.90;;;;;;4991193;28;20228;-76
2022/02/11 02:04:41;;;;;;;13.97;12.70;;;6.50;99.90;;;;;;4997980;28;20206;-76
2022/02/11 02:23:55;;;;;;;13.83;12.77;;;6.60;99.90;;;;;;4993105;28;20185;-76
2022/02/11 02:26:35;;;;;;;13.43;12.33;;;6.60;99.90;;;;;;4995275;28;20943;-76
2022/02/11 02:35:01;;;;;;;14.40;13.20;;;6.60;99.90;;;;;;4980032;28;20198;-76
2022/02/11 02:56:52;;;;;;;14.70;13.50;;;6.60;99.90;;;;;;4995301;28;20276;-76
2022/02/11 02:59:37;;;;;;;14.40;13.20;;;6.50;99.90;;;;;;4998935;28;20278;-76
2022/02/11 03:02:10;;;;;;;15.10;13.70;;;6.50;99.90;;;;;;5000298;28;20223;-76
2022/02/11 03:16:21;;;;;;;14.20;13.00;;;6.50;99.90;;;;;;4985112;28;20202;-76
2022/02/11 03:35:20;;;;;;;12.20;11.30;;;6.20;99.90;;;;;;4999116;28;20297;-76
2022/02/11 03:49:12;;;;;;;11.53;10.60;;;6.20;99.90;;;;;;4992811;28;20641;-77
2022/02/11 03:51:56;;;;;;;12.40;11.40;;;6.10;99.90;;;;;;4986420;28;20213;-77
2022/02/11 03:55:01;;;;;;;11.90;10.90;;;6.10;99.90;;;;;;4993283;28;20554;-77
2022/02/11 03:57:49;;;;;;;12.00;11.10;;;6.10;99.90;;;;;;4992969;28;20651;-78
2022/02/11 04:20:24;;;;;;;11.70;10.70;;;5.90;99.90;;;;;;4965628;28;20214;-75
2022/02/11 04:55:48;;;;;;;11.03;10.33;;;4.50;99.90;;;;;;5042858;28;20200;-77
2022/02/11 05:00:59;;;;;;;11.50;10.90;;;4.40;99.90;;;;;;5062246;28;20216;-77
2022/02/11 05:03:26;;;;;;;10.63;10.03;;;4.30;99.90;;;;;;5059231;28;20281;-78
2022/02/11 05:05:54;;;;;;;10.50;9.90;;;4.20;99.90;;;;;;5058916;28;20198;-77
2022/02/11 05:08:23;;;;;;;10.57;9.97;;;4.10;99.90;;;;;;5066177;28;20204;-77
2022/02/11 05:10:53;;;;;;;10.70;10.10;;;4.10;99.90;;;;;;5062430;28;20187;-77
2022/02/11 05:13:21;;;;;;;10.27;9.67;;;4.00;99.90;;;;;;5054560;28;20622;-78
2022/02/11 05:15:48;;;;;;;10.43;9.83;;;4.00;99.90;;;;;;5061945;28;20213;-77
2022/02/11 05:18:17;;;;;;;10.50;9.90;;;3.90;99.90;;;;;;5063230;28;20198;-77
2022/02/11 05:20:44;;;;;;;10.10;9.60;;;3.90;99.90;;;;;;5050838;28;20234;-77
2022/02/11 05:23:13;;;;;;;10.60;10.00;;;3.80;99.90;;;;;;5065240;28;20205;-77
2022/02/11 05:25:41;;;;;;;10.80;10.20;;;3.80;99.90;;;;;;5062807;28;20199;-78
2022/02/11 05:28:12;;;;;;;11.30;10.60;;;3.80;99.90;;;;;;5053802;28;20461;-77
2022/02/11 05:30:39;;;;;;;11.10;10.40;;;3.80;99.90;;;;;;5071852;28;20201;-77
2022/02/11 05:33:06;;;;;;;10.73;10.13;;;3.70;99.90;;;;;;5059972;28;20215;-78
2022/02/11 05:35:34;;;;;;;11.27;10.63;;;3.80;99.90;;;;;;5059344;28;20248;-78
2022/02/11 05:38:01;;;;;;;11.33;10.63;;;3.70;99.90;;;;;;5054126;28;20202;-78
2022/02/11 05:40:28;;;;;;;10.83;10.23;;;3.70;99.90;;;;;;5056325;28;20194;-77
2022/02/11 05:42:55;;;;;;;11.17;10.57;;;3.70;99.90;;;;;;5054936;28;20215;-78
2022/02/11 05:45:23;;;;;;;11.30;10.60;;;3.70;99.90;;;;;;5068276;28;20210;-78
2022/02/11 05:47:50;;;;;;;11.53;10.93;;;3.70;99.90;;;;;;5059916;28;20195;-78
2022/02/11 05:50:17;;;;;;;11.67;10.97;;;3.70;99.90;;;;;;5057696;28;20196;-78
2022/02/11 05:52:44;;;;;;;11.50;10.80;;;3.80;99.90;;;;;;5056804;28;20284;-77
2022/02/11 05:55:10;;;;;;;11.63;10.93;;;3.70;99.90;;;;;;5062648;28;20205;-77
2022/02/11 05:57:37;;;;;;;12.20;11.50;;;3.70;99.90;;;;;;5061077;28;20210;-77
2022/02/11 06:00:06;;;;;;;11.83;11.10;;;3.70;99.90;;;;;;5059570;28;20694;-77
2022/02/11 06:02:38;;;;;;;12.30;11.50;;;3.60;99.90;;;;;;5072442;28;20706;-77
2022/02/11 06:05:06;;;;;;;11.80;11.10;;;3.60;99.90;;;;;;5044177;28;20261;-77
2022/02/11 06:07:33;;;;;;;12.00;11.30;;;3.60;99.90;;;;;;5038462;28;20559;-78
2022/02/11 06:09:59;;;;;;;11.90;11.10;;;3.60;99.90;;;;;;5036646;28;20630;-76
2022/02/11 06:12:26;;;;;;;11.20;10.60;;;3.70;99.90;;;;;;5038445;28;20218;-77
2022/02/11 06:14:53;;;;;;;11.90;11.20;;;3.70;99.90;;;;;;5039689;28;20212;-77
2022/02/11 06:17:23;;;;;;;11.90;11.20;;;3.70;99.90;;;;;;5044447;28;20676;-77
2022/02/11 06:19:51;;;;;;;11.80;11.10;;;3.70;99.90;;;;;;5041042;28;20214;-77
2022/02/11 06:22:18;;;;;;;12.00;11.20;;;3.70;99.90;;;;;;5057940;28;20322;-76
2022/02/11 06:24:46;;;;;;;12.23;11.33;;;3.70;99.90;;;;;;5042197;28;20250;-77
2022/02/11 06:27:15;;;;;;;12.30;11.60;;;3.60;99.90;;;;;;5046179;28;20219;-77
2022/02/11 06:29:42;;;;;;;12.60;11.80;;;3.60;99.90;;;;;;5043518;28;20434;-76
2022/02/11 06:32:09;;;;;;;13.10;12.30;;;3.60;99.90;;;;;;5057501;28;20472;-77
2022/02/11 06:34:36;;;;;;;12.77;11.97;;;3.60;99.90;;;;;;5063477;28;20198;-76
2022/02/11 06:37:05;;;;;;;13.30;12.40;;;3.60;99.90;;;;;;5038599;28;20195;-77
2022/02/11 06:39:32;;;;;;;12.83;11.93;;;3.50;99.90;;;;;;5040256;28;20690;-76
2022/02/11 06:41:58;;;;;;;12.60;11.90;;;3.60;99.90;;;;;;5041527;28;20505;-76
2022/02/11 06:44:25;;;;;;;12.50;11.70;;;3.50;99.90;;;;;;5047785;28;20566;-78
2022/02/11 06:46:52;;;;;;;11.97;11.17;;;3.50;99.90;;;;;;5051485;28;20199;-78
2022/02/11 06:49:19;;;;;;;12.30;11.57;;;3.40;99.90;;;;;;5045918;28;20218;-77
2022/02/11 06:51:46;;;;;;;13.07;12.13;;;3.40;99.90;;;;;;5057567;28;20215;-77
2022/02/11 06:54:14;;;;;;;12.93;12.03;;;3.50;99.90;;;;;;5068797;28;20297;-77
2022/02/11 06:56:41;;;;;;;12.80;12.00;;;3.40;99.90;;;;;;5062330;28;20244;-77
2022/02/11 06:59:07;;;;;;;12.53;11.63;;;3.40;99.90;;;;;;5054255;28;20195;-77
2022/02/11 07:01:35;;;;;;;12.80;12.00;;;3.30;99.90;;;;;;5072411;28;20762;-77
2022/02/11 07:04:02;;;;;;;13.30;12.40;;;3.30;99.90;;;;;;5061872;28;20443;-77
2022/02/11 07:06:29;;;;;;;13.50;12.40;;;3.20;99.90;;;;;;5043128;28;20465;-77
2022/02/11 07:08:56;;;;;;;12.40;11.63;;;3.20;99.90;;;;;;5063237;28;20657;-78
2022/02/11 07:11:24;;;;;;;12.33;11.53;;;3.10;99.90;;;;;;5070655;28;20236;-79
2022/02/11 07:13:51;;;;;;;12.80;11.97;;;3.10;99.90;;;;;;5064877;28;20744;-79
2022/02/11 07:16:18;;;;;;;12.63;11.80;;;3.10;99.90;;;;;;5071249;28;20199;-77
2022/02/11 07:18:45;;;;;;;12.70;11.90;;;3.10;99.90;;;;;;5068083;28;20433;-77
2022/02/11 07:21:11;;;;;;;12.60;11.73;;;3.00;99.90;;;;;;5064599;28;20473;-76
2022/02/11 07:23:38;;;;;;;12.93;12.03;;;3.00;99.90;;;;;;5066726;28;21053;-78
2022/02/11 07:26:05;;;;;;;12.77;11.80;;;3.00;99.90;;;;;;5059014;28;20454;-77
2022/02/11 07:28:33;;;;;;;12.77;11.97;;;2.90;99.90;;;;;;5067368;28;20840;-77
2022/02/11 07:31:01;;;;;;;12.77;11.87;;;2.90;99.90;;;;;;5059929;28;20238;-77
2022/02/11 07:33:28;;;;;;;13.57;12.50;;;2.80;99.90;;;;;;5058734;28;20186;-77
2022/02/11 07:35:54;;;;;;;13.60;12.70;;;2.80;99.90;;;;;;5065641;28;20975;-78
2022/02/11 07:38:21;;;;;;;14.40;13.40;;;2.80;99.90;;;;;;5061047;28;20440;-77
2022/02/11 07:40:48;;;;;;;14.07;13.10;;;2.80;99.90;;;;;;5046502;28;21064;-78
2022/02/11 07:43:15;;;;;;;14.47;13.37;;;2.80;99.90;;;;;;5046629;28;20537;-77
2022/02/11 07:45:43;;;;;;;13.30;12.40;;;2.80;99.90;;;;;;5057199;28;20206;-77
2022/02/11 07:48:10;;;;;;;12.97;12.07;;;2.80;99.90;;;;;;5062910;28;20448;-78
2022/02/11 07:50:38;;;;;;;13.50;12.60;;;2.80;99.90;;;;;;5068740;28;20439;-78
2022/02/11 07:53:04;;;;;;;13.90;12.90;;;2.80;99.90;;;;;;5067774;28;20888;-77
2022/02/11 07:55:31;;;;;;;13.63;12.63;;;2.80;99.90;;;;;;5060843;28;20437;-77
2022/02/11 07:57:58;;;;;;;14.00;13.00;;;2.80;99.90;;;;;;5058609;28;20445;-77
2022/02/11 08:00:26;;;;;;;14.40;13.20;;;2.90;99.90;;;;;;5056909;28;20464;-77
2022/02/11 08:02:54;;;;;;;14.47;13.27;;;3.00;99.90;;;;;;5069140;28;20516;-77
2022/02/11 08:05:21;;;;;;;13.43;12.50;;;3.10;99.90;;;;;;5067627;28;20430;-77
2022/02/11 08:07:48;;;;;;;14.20;13.10;;;3.20;99.90;;;;;;5066048;28;20850;-78
2022/02/11 08:10:15;;;;;;;13.80;12.80;;;3.40;99.90;;;;;;5059752;28;20451;-77
2022/02/11 08:12:42;;;;;;;14.63;13.60;;;3.70;99.90;;;;;;5066322;28;20230;-77
2022/02/11 08:15:09;;;;;;;15.50;14.20;;;4.00;99.90;;;;;;5066440;28;20210;-77
2022/02/11 08:17:36;;;;;;;15.20;13.83;;;4.20;99.90;;;;;;5062337;28;20198;-78
2022/02/11 08:20:05;;;;;;;15.57;14.30;;;4.50;99.90;;;;;;5063944;28;20203;-77
2022/02/11 08:22:32;;;;;;;14.17;13.17;;;4.90;99.90;;;;;;5066949;28;20223;-78
2022/02/11 08:24:59;;;;;;;13.90;12.80;;;5.40;99.90;;;;;;5065001;28;20199;-78
2022/02/11 08:27:26;;;;;;;13.30;12.03;;;5.80;99.90;;;;;;5065561;28;20206;-78
2022/02/11 08:29:53;;;;;;;8.90;5.17;;;5.90;99.90;;;;;;5064741;28;20555;-77
2022/02/11 08:32:22;;;;;;;5.07;4.57;;;6.20;99.90;;;;;;5066618;28;20265;-78
2022/02/11 08:34:49;;;;;;;13.07;12.07;;;6.60;99.90;;;;;;5062861;28;20227;-78
2022/02/11 08:37:17;;;;;;;12.97;12.17;;;6.90;99.90;;;;;;5065178;28;20197;-78
2022/02/11 08:39:44;;;;;;;11.90;11.00;;;7.40;99.90;;;;;;5067232;28;20699;-78
2022/02/11 08:42:11;;;;;;;11.57;10.57;;;7.70;99.90;;;;;;5068971;28;20239;-78
2022/02/11 08:44:38;;;;;;;11.77;10.97;;;7.80;99.90;;;;;;5062216;28;20197;-79
2022/02/11 08:47:05;;;;;;;11.03;10.23;;;8.10;99.90;;;;;;5045232;28;20582;-78
2022/02/11 08:49:32;;;;;;;9.50;8.67;;;8.20;99.90;;;;;;5039274;28;20198;-79
2022/02/11 08:51:59;;;;;;;11.07;10.17;;;8.50;99.90;;;;;;5040343;28;20233;-77
2022/02/11 08:54:27;;;;;;;7.93;6.87;;;8.60;99.90;;;;;;5047278;28;20211;-77
2022/02/11 08:56:54;;;;;;;10.87;9.93;;;8.70;99.90;;;;;;5042534;28;20199;-79
2022/02/11 08:59:22;;;;;;;4.00;3.70;;;8.80;99.90;;;;;;5043848;28;20570;-75
2022/02/11 09:01:49;;;;;;;10.20;9.60;;;8.90;99.90;;;;;;5045629;28;20223;-76
2022/02/11 09:04:15;;;;;;;10.40;9.67;;;9.10;99.90;;;;;;5045293;28;20199;-76
2022/02/11 09:06:44;;;;;;;3.57;2.97;;;9.30;99.90;;;;;;5066804;28;20194;-76
2022/02/11 09:09:11;;;;;;;9.40;8.80;;;9.70;99.90;;;;;;5050052;28;20211;-75
2022/02/11 09:11:39;;;;;;;6.10;5.70;;;10.20;99.90;;;;;;5049928;28;20223;-75
2022/02/11 09:14:08;;;;;;;3.80;3.20;;;10.40;99.90;;;;;;5045659;28;20613;-78
2022/02/11 09:16:35;;;;;;;4.03;2.80;;;10.40;99.90;;;;;;5062823;28;20247;-76
2022/02/11 09:19:03;;;;;;;3.73;3.33;;;10.10;99.90;;;;;;5061181;28;20669;-77
2022/02/11 09:21:30;;;;;;;5.80;2.90;;;9.50;99.90;;;;;;5058482;28;20770;-76
2022/02/11 09:23:57;;;;;;;4.33;2.87;;;9.10;99.90;;;;;;5045707;28;20257;-75
2022/02/11 09:26:24;;;;;;;3.83;2.90;;;8.60;99.90;;;;;;5049908;28;20490;-76
2022/02/11 09:28:53;;;;;;;9.87;9.13;;;8.20;99.90;;;;;;5046654;28;20260;-77
2022/02/11 09:31:26;;;;;;;10.83;10.13;;;8.00;99.90;;;;;;5020938;28;20227;-77
2022/02/11 09:33:53;;;;;;;11.80;10.77;;;7.70;99.90;;;;;;5043952;28;20200;-76
2022/02/11 09:36:20;;;;;;;10.03;9.10;;;7.70;99.90;;;;;;5051484;28;20262;-75
2022/02/11 09:38:47;;;;;;;10.30;9.50;;;7.90;99.90;;;;;;5036458;28;20202;-77
2022/02/11 09:41:15;;;;;;;9.57;8.87;;;8.50;99.90;;;;;;5035202;28;20207;-78
2022/02/11 09:43:42;;;;;;;9.83;9.17;;;8.90;99.90;;;;;;5031849;28;20626;-76
2022/02/11 09:46:11;;;;;;;9.97;9.27;;;8.90;99.90;;;;;;5034977;28;20203;-77
2022/02/11 09:48:38;;;;;;;9.07;8.50;;;8.60;99.90;;;;;;5034221;28;20195;-76
2022/02/11 09:51:05;;;;;;;10.27;9.33;;;8.40;99.90;;;;;;5032567;28;20227;-76
2022/02/11 09:53:32;;;;;;;10.67;9.90;;;8.20;99.90;;;;;;5046756;28;20199;-76
2022/02/11 09:55:59;;;;;;;10.17;9.43;;;7.90;99.90;;;;;;5036548;28;20648;-76
2022/02/11 09:58:26;;;;;;;9.77;9.07;;;7.90;99.90;;;;;;5039073;28;20335;-76
2022/02/11 10:00:53;;;;;;;10.07;9.20;;;7.80;99.90;;;;;;5036305;28;20210;-76
2022/02/11 10:03:23;;;;;;;10.30;9.60;;;7.60;99.90;;;;;;5037810;28;20277;-76
2022/02/11 10:05:55;;;;;;;9.47;8.67;;;7.30;99.90;;;;;;5042196;28;20207;-76
2022/02/11 10:08:24;;;;;;;9.07;8.37;;;7.10;99.90;;;;;;5039260;28;20246;-76
2022/02/11 10:10:54;;;;;;;9.30;8.60;;;7.10;99.90;;;;;;5036630;28;20207;-74
2022/02/11 10:13:25;;;;;;;8.80;8.10;;;7.40;99.90;;;;;;5077247;22;20274;-78
2022/02/11 10:15:55;;;;;;;8.70;8.10;;;7.70;99.90;;;;;;5055693;28;20290;-78
2022/02/11 10:18:28;;;;;;;9.40;8.60;;;8.00;99.90;;;;;;5053631;28;20198;-77
2022/02/11 10:20:57;;;;;;;10.10;9.17;;;8.20;99.90;;;;;;5054496;28;20191;-77
2022/02/11 10:23:25;;;;;;;9.10;8.20;;;8.30;99.90;;;;;;5074112;28;20210;-77
2022/02/11 10:25:58;;;;;;;9.57;8.33;;;8.30;99.90;;;;;;5069401;28;20263;-77
2022/02/11 10:28:28;;;;;;;9.03;8.23;;;8.30;99.90;;;;;;5079123;28;20204;-77
2022/02/11 10:31:09;;;;;;;9.00;8.20;;;8.30;99.90;;;;;;5058516;28;20209;-77
2022/02/11 10:33:52;;;;;;;9.30;8.47;;;8.40;99.90;;;;;;5040177;28;20219;-77
2022/02/11 10:36:21;;;;;;;9.40;8.60;;;8.50;99.90;;;;;;5052888;28;20203;-76
2022/02/11 10:39:01;;;;;;;10.53;9.50;;;8.60;99.90;;;;;;5049382;28;20609;-78
2022/02/11 10:41:28;;;;;;;9.13;8.40;;;8.90;99.90;;;;;;5061099;28;20202;-77
2022/02/11 10:43:58;;;;;;;9.70;8.80;;;9.20;99.90;;;;;;5059247;28;20223;-79
2022/02/11 10:46:25;;;;;;;9.30;8.57;;;9.30;99.90;;;;;;5058251;28;20248;-77
2022/02/11 10:48:53;;;;;;;8.90;8.30;;;9.20;99.90;;;;;;5053735;28;20204;-77
2022/02/11 10:51:23;;;;;;;9.60;8.80;;;9.00;99.90;;;;;;5057657;28;20754;-77
2022/02/11 10:53:50;;;;;;;10.10;9.20;;;8.80;99.90;;;;;;5054857;28;20749;-78
2022/02/11 10:56:17;;;;;;;10.07;9.27;;;8.70;99.90;;;;;;5046987;28;20196;-77
2022/02/11 10:58:56;;;;;;;9.87;8.87;;;8.50;99.90;;;;;;5038270;28;20661;-77
2022/02/11 11:01:26;;;;;;;9.83;8.80;;;8.20;99.90;;;;;;5053441;28;20198;-77
2022/02/11 11:03:57;;;;;;;8.53;7.93;;;8.00;99.90;;;;;;5036172;28;20278;-78
2022/02/11 11:06:25;;;;;;;9.17;8.37;;;8.00;99.90;;;;;;5048802;28;20223;-77
2022/02/11 11:08:54;;;;;;;9.60;8.90;;;7.90;99.90;;;;;;5061059;28;20298;-77
2022/02/11 11:11:24;;;;;;;10.10;9.40;;;7.80;99.90;;;;;;5052336;28;20195;-77
2022/02/11 11:13:54;;;;;;;10.20;9.43;;;7.70;99.90;;;;;;5047507;28;20233;-77
2022/02/11 11:16:21;;;;;;;9.27;8.67;;;7.50;99.90;;;;;;5060392;28;20203;-77
2022/02/11 11:18:49;;;;;;;9.50;8.80;;;7.40;99.90;;;;;;5062180;28;20206;-77
2022/02/11 11:21:18;;;;;;;9.80;9.00;;;7.30;99.90;;;;;;5055387;28;20206;-77
2022/02/11 11:23:54;;;;;;;10.00;9.27;;;7.20;99.90;;;;;;5055980;28;20210;-76
2022/02/11 11:26:21;;;;;;;9.47;8.87;;;7.10;99.90;;;;;;5043700;28;20206;-77
2022/02/11 11:28:50;;;;;;;9.40;8.70;;;7.00;99.90;;;;;;5054842;28;20264;-77
2022/02/11 11:31:24;;;;;;;9.53;8.70;;;6.90;99.90;;;;;;5060249;28;20256;-77
2022/02/11 11:33:52;;;;;;;9.60;8.90;;;6.90;99.90;;;;;;5062351;28;20194;-77
2022/02/11 11:36:21;;;;;;;9.53;8.83;;;6.80;99.90;;;;;;5062722;28;20202;-77
2022/02/11 11:38:57;;;;;;;9.80;8.90;;;6.90;99.90;;;;;;5061096;28;20689;-77
2022/02/11 11:41:25;;;;;;;10.40;8.90;;;7.00;99.90;;;;;;5060894;28;20189;-77
2022/02/11 11:43:54;;;;;;;9.40;8.70;;;7.10;99.90;;;;;;5037869;28;20215;-77
2022/02/11 11:46:33;;;;;;;9.57;8.77;;;7.10;99.90;;;;;;5037434;28;20210;-77
2022/02/11 11:49:03;;;;;;;9.20;8.50;;;7.00;99.90;;;;;;5053512;28;20590;-76
2022/02/11 11:51:55;;;;;;;9.20;8.50;;;7.00;99.90;;;;;;5046416;28;20572;-77
2022/02/11 11:54:26;;;;;;;9.23;8.60;;;7.00;99.90;;;;;;5051893;28;20611;-78
2022/02/11 11:56:57;;;;;;;9.63;8.80;;;7.10;99.90;;;;;;5051831;28;20202;-77
2022/02/11 11:59:28;;;;;;;9.87;9.07;;;7.10;99.90;;;;;;5056920;28;20674;-77
2022/02/11 12:01:58;;;;;;;8.73;8.13;;;7.20;99.90;;;;;;5063668;28;20275;-77
2022/02/11 12:04:27;;;;;;;9.47;8.77;;;7.10;99.90;;;;;;5051412;28;20216;-77
2022/02/11 12:07:01;;;;;;;10.03;9.27;;;7.10;99.90;;;;;;5041010;28;20582;-77
2022/02/11 12:09:29;;;;;;;9.60;8.73;;;7.00;99.90;;;;;;5050392;28;20201;-77
2022/02/11 12:11:59;;;;;;;8.97;8.37;;;6.90;99.90;;;;;;5044611;28;20223;-77
2022/02/11 12:14:27;;;;;;;9.67;8.20;;;6.80;99.90;;;;;;5056294;28;20264;-77
2022/02/11 12:16:55;;;;;;;9.40;8.53;;;6.70;99.90;;;;;;5060241;28;20723;-77
2022/02/11 12:19:23;;;;;;;8.93;8.23;;;6.70;99.90;;;;;;5057754;28;20236;-77
2022/02/11 12:21:50;;;;;;;9.73;8.13;;;6.70;99.90;;;;;;5048893;28;20259;-77
2022/02/11 12:27:23;;;;;;;8.53;7.97;;;6.70;99.90;;;;;;5065829;28;20201;-77
2022/02/11 12:29:53;;;;;;;9.03;7.90;;;6.80;99.90;;;;;;5052403;28;20197;-77
2022/02/11 12:32:21;;;;;;;8.33;7.63;;;6.70;99.90;;;;;;5056247;28;20210;-77
2022/02/11 12:34:53;;;;;;;8.30;7.70;;;6.60;99.90;;;;;;5054893;28;20631;-77
2022/02/11 12:37:21;;;;;;;9.47;8.67;;;6.50;99.90;;;;;;5049775;28;20201;-77
2022/02/11 12:40:01;;;;;;;9.70;8.90;;;6.40;99.90;;;;;;5055481;28;20209;-77
2022/02/11 12:42:28;;;;;;;9.47;8.77;;;6.40;99.90;;;;;;5044971;28;20319;-78
2022/02/11 12:44:54;;;;;;;9.60;8.80;;;6.50;99.90;;;;;;5051190;28;20225;-80
2022/02/11 12:47:21;;;;;;;9.33;8.53;;;6.40;99.90;;;;;;5053709;28;20700;-79
2022/02/11 12:49:51;;;;;;;9.07;8.20;;;6.50;99.90;;;;;;5059126;28;20211;-82
2022/02/11 12:52:20;;;;;;;9.43;8.23;;;6.50;99.90;;;;;;5063415;28;20233;-82
2022/02/11 12:55:06;;;;;;;8.80;8.10;;;6.60;99.90;;;;;;5072259;28;20196;-82
2022/02/11 12:57:33;;;;;;;8.63;8.03;;;6.60;99.90;;;;;;5059268;28;20200;-80
2022/02/11 13:00:00;;;;;;;9.30;8.50;;;6.60;99.90;;;;;;5053107;28;20207;-80
2022/02/11 13:02:29;;;;;;;8.53;7.90;;;6.60;99.90;;;;;;5054778;28;20221;-82
2022/02/11 13:05:04;;;;;;;8.50;7.90;;;6.70;99.90;;;;;;5060412;28;20776;-81
2022/02/11 13:07:31;;;;;;;8.90;8.20;;;6.70;99.90;;;;;;5058620;28;20196;-81
2022/02/11 13:09:59;;;;;;;9.13;8.33;;;6.70;99.90;;;;;;5069199;28;20200;-82
2022/02/11 13:12:35;;;;;;;9.00;8.30;;;6.70;99.90;;;;;;5055911;28;20285;-82
2022/02/11 13:15:02;;;;;;;9.23;8.43;;;6.80;99.90;;;;;;5055042;28;20252;-82
2022/02/11 13:17:30;;;;;;;8.80;8.17;;;6.90;99.90;;;;;;5051100;28;20225;-82
2022/02/11 13:20:10;;;;;;;9.23;8.63;;;7.00;99.90;;;;;;5054967;28;20209;-82
2022/02/11 13:22:37;;;;;;;9.13;8.53;;;7.00;99.90;;;;;;5074668;28;20221;-81
2022/02/11 13:25:05;;;;;;;9.23;8.47;;;7.10;99.90;;;;;;5055805;28;20220;-81
2022/02/11 13:27:45;;;;;;;8.63;7.93;;;7.10;99.90;;;;;;5065961;28;20682;-81
2022/02/11 13:30:13;;;;;;;8.83;8.13;;;7.10;99.90;;;;;;5043706;28;20801;-80
2022/02/11 13:32:40;;;;;;;8.87;8.07;;;7.20;99.90;;;;;;5043676;28;20255;-82
2022/02/11 13:35:10;;;;;;;9.07;8.17;;;7.10;99.90;;;;;;5053097;28;20208;-82
2022/02/11 13:37:39;;;;;;;8.70;8.07;;;7.20;99.90;;;;;;5055606;28;20208;-81
2022/02/11 13:40:14;;;;;;;8.77;8.07;;;7.30;99.90;;;;;;5057762;28;20209;-81
2022/02/11 13:42:52;;;;;;;8.53;7.83;;;7.30;99.90;;;;;;5051483;28;20283;-81
2022/02/11 13:45:19;;;;;;;8.67;7.90;;;7.30;99.90;;;;;;5054548;28;20202;-82
2022/02/11 13:48:02;;;;;;;9.10;8.30;;;7.30;99.90;;;;;;5056477;28;20626;-82
2022/02/11 13:50:30;;;;;;;9.00;8.20;;;7.30;99.90;;;;;;5053680;28;20193;-81
2022/02/11 13:53:02;;;;;;;8.87;8.17;;;7.20;99.90;;;;;;5051001;28;20234;-82
2022/02/11 13:55:30;;;;;;;8.53;7.93;;;7.20;99.90;;;;;;5046971;28;20730;-82
2022/02/11 13:58:11;;;;;;;8.90;8.10;;;7.20;99.90;;;;;;5054331;28;20206;-81
2022/02/11 14:00:38;;;;;;;8.73;8.03;;;7.10;99.90;;;;;;5057806;28;20218;-81
2022/02/11 14:03:05;;;;;;;8.70;7.90;;;7.20;99.90;;;;;;5054683;28;20228;-81
2022/02/11 14:05:43;;;;;;;8.50;7.90;;;7.30;99.90;;;;;;5051048;28;20206;-81
2022/02/11 14:08:11;;;;;;;8.30;7.80;;;7.30;99.90;;;;;;5047338;28;20209;-81
2022/02/11 14:10:38;;;;;;;8.30;7.70;;;7.20;99.90;;;;;;5056153;28;20232;-81
2022/02/11 14:13:07;;;;;;;8.00;7.50;;;7.00;99.90;;;;;;5042094;28;20223;-81
2022/02/11 14:15:34;;;;;;;8.40;7.80;;;6.80;99.90;;;;;;5064186;28;20198;-81
2022/02/11 14:18:04;;;;;;;8.30;7.80;;;6.70;99.90;;;;;;5055749;28;20223;-81
2022/02/11 14:20:30;;;;;;;8.83;8.23;;;6.70;99.90;;;;;;5053708;28;20288;-80
2022/02/11 14:23:10;;;;;;;9.33;8.50;;;6.60;99.90;;;;;;5054307;28;20222;-80
2022/02/11 14:25:36;;;;;;;9.50;8.77;;;6.60;99.90;;;;;;5051494;28;20204;-81
2022/02/11 14:28:04;;;;;;;8.13;7.53;;;6.60;99.90;;;;;;5058702;28;20685;-81
2022/02/11 14:30:32;;;;;;;9.60;8.80;;;6.50;99.90;;;;;;5061925;28;20198;-81
2022/02/11 14:32:59;;;;;;;9.10;8.50;;;6.50;99.90;;;;;;5051592;28;20254;-82
2022/02/11 14:35:25;;;;;;;9.30;8.60;;;6.40;99.90;;;;;;5058933;28;20684;-77
2022/02/11 14:37:52;;;;;;;8.57;7.90;;;6.40;99.90;;;;;;5060119;28;20676;-78
2022/02/11 14:40:19;;;;;;;8.70;8.00;;;6.50;99.90;;;;;;5062948;28;20205;-79
2022/02/11 14:42:46;;;;;;;8.27;7.57;;;6.50;99.90;;;;;;5057771;28;20232;-80
2022/02/11 14:45:13;;;;;;;8.83;8.13;;;6.60;99.90;;;;;;5061101;28;20228;-82
2022/02/11 14:47:41;;;;;;;8.70;8.10;;;6.70;99.90;;;;;;5060804;28;20211;-81
2022/02/11 14:50:09;;;;;;;8.50;8.00;;;6.70;99.90;;;;;;5051677;28;20205;-82
2022/02/11 14:52:36;;;;;;;8.50;8.00;;;6.80;99.90;;;;;;5056898;28;20224;-81
2022/02/11 14:55:03;;;;;;;9.10;8.40;;;6.70;99.90;;;;;;5054816;28;20269;-79
2022/02/11 14:57:30;;;;;;;9.73;8.83;;;6.70;99.90;;;;;;5077748;28;20218;-80
2022/02/11 14:59:56;;;;;;;10.67;9.63;;;6.70;99.90;;;;;;5055446;28;20632;-80
2022/02/11 15:02:23;;;;;;;9.70;8.67;;;6.60;99.90;;;;;;5053407;28;20228;-77
2022/02/11 15:04:54;;;;;;;9.43;8.57;;;6.50;99.90;;;;;;5048755;28;21558;-78
2022/02/11 15:07:21;;;;;;;7.40;7.00;;;6.40;99.90;;;;;;5043828;28;21560;-83
2022/02/11 15:09:48;;;;;;;8.30;7.70;;;6.20;99.90;;;;;;5063750;28;20196;-79
2022/02/11 15:12:22;;;;;;;7.90;7.30;;;6.10;99.90;;;;;;5051633;28;20318;-84
2022/02/11 15:14:48;;;;;;;9.13;8.33;;;6.00;99.90;;;;;;5052922;28;20255;-77
2022/02/11 15:17:16;;;;;;;12.83;11.47;;;6.00;99.90;;;;;;5053811;28;20196;-76
2022/02/11 15:19:44;;;;;;;11.33;9.57;;;5.90;99.90;;;;;;5061590;28;20675;-76
2022/02/11 15:22:14;;;;;;;9.10;8.30;;;5.80;99.90;;;;;;5061946;28;20272;-76
2022/02/11 15:24:47;;;;;;;9.53;8.57;;;5.80;99.90;;;;;;5057821;28;20710;-76
2022/02/11 15:27:14;;;;;;;15.93;12.13;;;5.80;99.90;;;;;;5060289;28;20208;-76
2022/02/11 15:29:42;;;;;;;17.40;13.23;;;5.90;99.90;;;;;;5059196;28;20209;-76
2022/02/11 15:32:10;;;;;;;14.83;11.10;;;6.00;99.90;;;;;;5056572;28;20234;-78
2022/02/11 15:34:36;;;;;;;9.80;8.97;;;6.20;99.90;;;;;;5061961;28;20309;-78
2022/02/11 15:37:05;;;;;;;10.47;9.00;;;6.30;99.90;;;;;;5051483;28;20215;-77
2022/02/11 15:39:34;;;;;;;9.73;8.87;;;6.30;99.90;;;;;;5052942;28;20273;-78
2022/02/11 15:42:02;;;;;;;11.47;9.90;;;6.30;99.90;;;;;;5054192;28;20605;-78
2022/02/11 15:44:28;;;;;;;11.43;10.27;;;6.40;99.90;;;;;;5051155;28;20209;-77
2022/02/11 15:46:55;;;;;;;8.93;8.23;;;6.40;99.90;;;;;;5055388;28;20622;-78
2022/02/11 15:49:22;;;;;;;8.30;7.70;;;6.30;99.90;;;;;;5066431;28;20203;-78
2022/02/11 15:51:49;;;;;;;8.00;7.40;;;6.30;99.90;;;;;;5053390;28;20254;-77
2022/02/11 15:54:16;;;;;;;7.53;7.07;;;6.30;99.90;;;;;;5055565;28;20201;-78